sensor_id;sensor_type;location;lat;lon;timestamp;temperature;humidity
42141;DHT22;27809;51.864;5.646;2023-05-16T00:00:17;9.30;99.90
42141;DHT22;27809;51.864;5.646;2023-05-16T00:02:42;9.30;99.90
42141;DHT22;27809;51.864;5.646;2023-05-16T00:05:08;9.30;99.90
42141;DHT22;27809;51.864;5.646;2023-05-16T00:07:35;9.30;99.90
42141;DHT22;27809;51.864;5.646;2023-05-16T00:10:01;9.30;99.90
42141;DHT22;27809;51.864;5.646;2023-05-16T00:12:27;9.40;99.90
42141;DHT22;27809;51.864;5.646;2023-05-16T00:14:53;9.40;99.90
42141;DHT22;27809;51.864;5.646;2023-05-16T00:17:19;9.40;99.90
42141;DHT22;27809;51.864;5.646;2023-05-16T00:19:46;9.40;99.90
42141;DHT22;27809;51.864;5.646;2023-05-16T00:22:14;9.30;99.90
42141;DHT22;27809;51.864;5.646;2023-05-16T00:24:40;9.20;99.90
42141;DHT22;27809;51.864;5.646;2023-05-16T00:27:05;9.20;99.90
42141;DHT22;27809;51.864;5.646;2023-05-16T00:29:31;9.30;99.90
42141;DHT22;27809;51.864;5.646;2023-05-16T00:31:57;9.20;99.90
42141;DHT22;27809;51.864;5.646;2023-05-16T00:34:22;9.30;99.90
42141;DHT22;27809;51.864;5.646;2023-05-16T00:36:51;9.20;99.90
42141;DHT22;27809;51.864;5.646;2023-05-16T00:39:16;9.20;99.90
42141;DHT22;27809;51.864;5.646;2023-05-16T00:41:42;9.20;99.90
42141;DHT22;27809;51.864;5.646;2023-05-16T00:44:08;9.10;99.90
42141;DHT22;27809;51.864;5.646;2023-05-16T00:46:34;9.10;99.90
42141;DHT22;27809;51.864;5.646;2023-05-16T00:49:00;9.00;99.90
42141;DHT22;27809;51.864;5.646;2023-05-16T00:51:26;8.90;99.90
42141;DHT22;27809;51.864;5.646;2023-05-16T00:53:52;8.90;99.90
42141;DHT22;27809;51.864;5.646;2023-05-16T00:56:19;9.00;99.90
42141;DHT22;27809;51.864;5.646;2023-05-16T00:58:45;9.10;99.90
42141;DHT22;27809;51.864;5.646;2023-05-16T01:01:11;9.10;99.90
42141;DHT22;27809;51.864;5.646;2023-05-16T01:03:37;8.90;99.90
42141;DHT22;27809;51.864;5.646;2023-05-16T01:06:03;8.80;99.90
42141;DHT22;27809;51.864;5.646;2023-05-16T01:08:28;8.70;99.90
42141;DHT22;27809;51.864;5.646;2023-05-16T01:16:25;8.70;99.90
42141;DHT22;27809;51.864;5.646;2023-05-16T01:18:59;8.70;99.90
42141;DHT22;27809;51.864;5.646;2023-05-16T01:21:41;8.70;99.90
42141;DHT22;27809;51.864;5.646;2023-05-16T01:24:13;8.60;99.90
42141;DHT22;27809;51.864;5.646;2023-05-16T01:26:47;8.60;99.90
42141;DHT22;27809;51.864;5.646;2023-05-16T01:29:14;8.50;99.90
42141;DHT22;27809;51.864;5.646;2023-05-16T01:31:40;8.40;99.90
42141;DHT22;27809;51.864;5.646;2023-05-16T01:34:06;8.50;99.90
42141;DHT22;27809;51.864;5.646;2023-05-16T01:39:35;8.30;99.90
42141;DHT22;27809;51.864;5.646;2023-05-16T01:42:07;8.30;99.90
42141;DHT22;27809;51.864;5.646;2023-05-16T01:44:49;8.20;99.90
42141;DHT22;27809;51.864;5.646;2023-05-16T01:47:19;8.20;99.90
42141;DHT22;27809;51.864;5.646;2023-05-16T01:49:56;8.10;99.90
42141;DHT22;27809;51.864;5.646;2023-05-16T01:52:27;8.20;99.90
42141;DHT22;27809;51.864;5.646;2023-05-16T01:54:55;8.10;99.90
42141;DHT22;27809;51.864;5.646;2023-05-16T01:57:24;8.00;99.90
42141;DHT22;27809;51.864;5.646;2023-05-16T01:59:50;7.90;99.90
42141;DHT22;27809;51.864;5.646;2023-05-16T02:02:19;8.00;99.90
42141;DHT22;27809;51.864;5.646;2023-05-16T02:04:45;8.20;99.90
42141;DHT22;27809;51.864;5.646;2023-05-16T02:07:12;8.10;99.90
42141;DHT22;27809;51.864;5.646;2023-05-16T02:09:39;8.30;99.90
42141;DHT22;27809;51.864;5.646;2023-05-16T02:12:05;8.30;99.90
42141;DHT22;27809;51.864;5.646;2023-05-16T02:14:30;8.30;99.90
42141;DHT22;27809;51.864;5.646;2023-05-16T02:16:56;8.40;99.90
42141;DHT22;27809;51.864;5.646;2023-05-16T02:19:22;8.30;99.90
42141;DHT22;27809;51.864;5.646;2023-05-16T02:21:47;8.10;99.90
42141;DHT22;27809;51.864;5.646;2023-05-16T02:24:13;8.20;99.90
42141;DHT22;27809;51.864;5.646;2023-05-16T02:26:38;8.10;99.90
42141;DHT22;27809;51.864;5.646;2023-05-16T02:29:04;8.10;99.90
42141;DHT22;27809;51.864;5.646;2023-05-16T02:31:31;8.10;99.90
42141;DHT22;27809;51.864;5.646;2023-05-16T02:33:58;8.10;99.90
42141;DHT22;27809;51.864;5.646;2023-05-16T02:36:24;8.30;99.90
42141;DHT22;27809;51.864;5.646;2023-05-16T02:38:49;8.40;99.90
42141;DHT22;27809;51.864;5.646;2023-05-16T02:41:15;8.50;99.90
42141;DHT22;27809;51.864;5.646;2023-05-16T02:43:40;8.60;99.90
42141;DHT22;27809;51.864;5.646;2023-05-16T02:46:30;8.40;99.90
42141;DHT22;27809;51.864;5.646;2023-05-16T02:48:56;8.30;99.90
42141;DHT22;27809;51.864;5.646;2023-05-16T02:51:23;8.30;99.90
42141;DHT22;27809;51.864;5.646;2023-05-16T02:53:49;8.20;99.90
42141;DHT22;27809;51.864;5.646;2023-05-16T02:56:14;8.20;99.90
42141;DHT22;27809;51.864;5.646;2023-05-16T02:58:40;8.10;99.90
42141;DHT22;27809;51.864;5.646;2023-05-16T03:01:07;8.00;99.90
42141;DHT22;27809;51.864;5.646;2023-05-16T03:03:33;8.00;99.90
42141;DHT22;27809;51.864;5.646;2023-05-16T03:06:01;8.00;99.90
42141;DHT22;27809;51.864;5.646;2023-05-16T03:08:27;8.00;99.90
42141;DHT22;27809;51.864;5.646;2023-05-16T03:10:53;8.00;99.90
42141;DHT22;27809;51.864;5.646;2023-05-16T03:13:18;7.80;99.90
42141;DHT22;27809;51.864;5.646;2023-05-16T03:15:44;7.80;99.90
42141;DHT22;27809;51.864;5.646;2023-05-16T03:18:10;7.70;99.90
42141;DHT22;27809;51.864;5.646;2023-05-16T03:20:36;7.70;99.90
42141;DHT22;27809;51.864;5.646;2023-05-16T03:23:02;7.70;99.90
42141;DHT22;27809;51.864;5.646;2023-05-16T03:25:28;7.50;99.90
42141;DHT22;27809;51.864;5.646;2023-05-16T03:27:53;7.40;99.90
42141;DHT22;27809;51.864;5.646;2023-05-16T03:30:19;7.40;99.90
42141;DHT22;27809;51.864;5.646;2023-05-16T03:32:45;7.40;99.90
42141;DHT22;27809;51.864;5.646;2023-05-16T03:35:11;7.40;99.90
42141;DHT22;27809;51.864;5.646;2023-05-16T03:37:37;7.40;99.90
42141;DHT22;27809;51.864;5.646;2023-05-16T03:40:03;7.30;99.90
42141;DHT22;27809;51.864;5.646;2023-05-16T03:42:31;7.20;99.90
42141;DHT22;27809;51.864;5.646;2023-05-16T03:44:57;7.00;99.90
42141;DHT22;27809;51.864;5.646;2023-05-16T03:47:22;7.00;99.90
42141;DHT22;27809;51.864;5.646;2023-05-16T03:49:48;7.20;99.90
42141;DHT22;27809;51.864;5.646;2023-05-16T03:52:14;7.20;99.90
42141;DHT22;27809;51.864;5.646;2023-05-16T03:54:39;7.30;99.90
42141;DHT22;27809;51.864;5.646;2023-05-16T03:57:05;7.20;99.90
42141;DHT22;27809;51.864;5.646;2023-05-16T03:59:30;7.20;99.90
42141;DHT22;27809;51.864;5.646;2023-05-16T04:01:56;7.20;99.90
42141;DHT22;27809;51.864;5.646;2023-05-16T04:04:22;7.20;99.90
42141;DHT22;27809;51.864;5.646;2023-05-16T04:06:47;7.20;99.90
42141;DHT22;27809;51.864;5.646;2023-05-16T04:09:13;7.10;99.90
42141;DHT22;27809;51.864;5.646;2023-05-16T04:11:38;7.20;99.90
42141;DHT22;27809;51.864;5.646;2023-05-16T04:14:04;7.20;99.90
42141;DHT22;27809;51.864;5.646;2023-05-16T04:16:29;7.20;99.90
42141;DHT22;27809;51.864;5.646;2023-05-16T04:18:55;7.10;99.90
42141;DHT22;27809;51.864;5.646;2023-05-16T04:21:21;7.20;99.90
42141;DHT22;27809;51.864;5.646;2023-05-16T04:23:47;7.30;99.90
42141;DHT22;27809;51.864;5.646;2023-05-16T04:26:12;7.40;99.90
42141;DHT22;27809;51.864;5.646;2023-05-16T04:28:39;7.30;99.90
42141;DHT22;27809;51.864;5.646;2023-05-16T04:31:05;7.30;99.90
42141;DHT22;27809;51.864;5.646;2023-05-16T04:33:32;7.50;99.90
42141;DHT22;27809;51.864;5.646;2023-05-16T04:35:58;7.50;99.90
42141;DHT22;27809;51.864;5.646;2023-05-16T04:38:24;7.50;99.90
42141;DHT22;27809;51.864;5.646;2023-05-16T04:40:50;7.70;99.90
42141;DHT22;27809;51.864;5.646;2023-05-16T04:43:16;7.70;99.90
42141;DHT22;27809;51.864;5.646;2023-05-16T04:45:42;7.80;99.90
42141;DHT22;27809;51.864;5.646;2023-05-16T04:48:07;7.80;99.90
42141;DHT22;27809;51.864;5.646;2023-05-16T04:50:33;7.80;99.90
42141;DHT22;27809;51.864;5.646;2023-05-16T04:52:58;7.90;99.90
42141;DHT22;27809;51.864;5.646;2023-05-16T04:55:24;8.00;99.90
42141;DHT22;27809;51.864;5.646;2023-05-16T04:57:50;8.10;99.90
42141;DHT22;27809;51.864;5.646;2023-05-16T05:00:16;8.20;99.90
42141;DHT22;27809;51.864;5.646;2023-05-16T05:02:42;8.20;99.90
42141;DHT22;27809;51.864;5.646;2023-05-16T05:05:08;8.30;99.90
42141;DHT22;27809;51.864;5.646;2023-05-16T05:07:34;8.30;99.90
42141;DHT22;27809;51.864;5.646;2023-05-16T05:10:00;8.40;98.00
42141;DHT22;27809;51.864;5.646;2023-05-16T05:12:25;8.40;98.20
42141;DHT22;27809;51.864;5.646;2023-05-16T05:14:54;8.70;99.10
42141;DHT22;27809;51.864;5.646;2023-05-16T05:17:20;8.60;96.70
42141;DHT22;27809;51.864;5.646;2023-05-16T05:19:46;8.70;96.60
42141;DHT22;27809;51.864;5.646;2023-05-16T05:22:13;8.80;96.80
42141;DHT22;27809;51.864;5.646;2023-05-16T05:24:38;8.70;95.90
42141;DHT22;27809;51.864;5.646;2023-05-16T05:27:04;8.80;97.00
42141;DHT22;27809;51.864;5.646;2023-05-16T05:29:30;8.70;97.90
42141;DHT22;27809;51.864;5.646;2023-05-16T05:31:55;8.70;96.50
42141;DHT22;27809;51.864;5.646;2023-05-16T05:34:21;8.80;97.80
42141;DHT22;27809;51.864;5.646;2023-05-16T05:36:46;8.80;98.50
42141;DHT22;27809;51.864;5.646;2023-05-16T05:39:12;8.90;97.20
42141;DHT22;27809;51.864;5.646;2023-05-16T05:41:38;9.00;96.30
42141;DHT22;27809;51.864;5.646;2023-05-16T05:44:04;9.00;96.30
42141;DHT22;27809;51.864;5.646;2023-05-16T05:46:30;9.10;94.70
42141;DHT22;27809;51.864;5.646;2023-05-16T05:48:56;9.10;92.50
42141;DHT22;27809;51.864;5.646;2023-05-16T05:51:23;9.30;94.60
42141;DHT22;27809;51.864;5.646;2023-05-16T05:53:48;9.50;94.60
42141;DHT22;27809;51.864;5.646;2023-05-16T05:56:14;9.60;91.60
42141;DHT22;27809;51.864;5.646;2023-05-16T05:58:40;12.10;91.70
42141;DHT22;27809;51.864;5.646;2023-05-16T06:01:10;10.80;58.70
42141;DHT22;27809;51.864;5.646;2023-05-16T06:03:36;10.20;72.80
42141;DHT22;27809;51.864;5.646;2023-05-16T06:06:02;10.10;75.20
42141;DHT22;27809;51.864;5.646;2023-05-16T06:08:28;10.10;68.80
42141;DHT22;27809;51.864;5.646;2023-05-16T06:10:53;10.20;76.00
42141;DHT22;27809;51.864;5.646;2023-05-16T06:13:19;10.30;75.60
42141;DHT22;27809;51.864;5.646;2023-05-16T06:15:52;10.40;74.10
42141;DHT22;27809;51.864;5.646;2023-05-16T06:18:18;10.40;76.30
42141;DHT22;27809;51.864;5.646;2023-05-16T06:20:44;10.50;74.70
42141;DHT22;27809;51.864;5.646;2023-05-16T06:23:09;10.50;72.50
42141;DHT22;27809;51.864;5.646;2023-05-16T06:25:35;10.60;68.50
42141;DHT22;27809;51.864;5.646;2023-05-16T06:28:01;11.40;55.60
42141;DHT22;27809;51.864;5.646;2023-05-16T06:30:26;13.20;43.40
42141;DHT22;27809;51.864;5.646;2023-05-16T06:32:52;12.70;29.80
42141;DHT22;27809;51.864;5.646;2023-05-16T06:35:17;12.20;33.80
42141;DHT22;27809;51.864;5.646;2023-05-16T06:37:43;12.10;23.80
42141;DHT22;27809;51.864;5.646;2023-05-16T06:40:09;12.40;31.00
42141;DHT22;27809;51.864;5.646;2023-05-16T06:42:35;12.60;32.70
42141;DHT22;27809;51.864;5.646;2023-05-16T06:45:00;12.80;25.80
42141;DHT22;27809;51.864;5.646;2023-05-16T06:47:26;12.50;23.00
42141;DHT22;27809;51.864;5.646;2023-05-16T06:49:51;13.00;20.20
42141;DHT22;27809;51.864;5.646;2023-05-16T06:52:17;12.40;22.50
42141;DHT22;27809;51.864;5.646;2023-05-16T06:54:42;12.70;17.20
42141;DHT22;27809;51.864;5.646;2023-05-16T06:57:08;12.30;18.00
42141;DHT22;27809;51.864;5.646;2023-05-16T06:59:34;12.20;18.80
42141;DHT22;27809;51.864;5.646;2023-05-16T07:02:00;13.40;15.30
42141;DHT22;27809;51.864;5.646;2023-05-16T07:04:26;13.00;16.20
42141;DHT22;27809;51.864;5.646;2023-05-16T07:06:52;13.20;1.00
42141;DHT22;27809;51.864;5.646;2023-05-16T07:09:18;12.60;6.20
42141;DHT22;27809;51.864;5.646;2023-05-16T07:11:43;12.30;12.00
42141;DHT22;27809;51.864;5.646;2023-05-16T07:14:09;13.00;15.20
42141;DHT22;27809;51.864;5.646;2023-05-16T07:16:34;13.00;6.80
42141;DHT22;27809;51.864;5.646;2023-05-16T07:19:00;12.80;13.90
42141;DHT22;27809;51.864;5.646;2023-05-16T07:21:26;12.10;13.70
42141;DHT22;27809;51.864;5.646;2023-05-16T07:23:52;12.60;23.50
42141;DHT22;27809;51.864;5.646;2023-05-16T07:26:17;14.10;16.00
42141;DHT22;27809;51.864;5.646;2023-05-16T07:28:43;14.50;1.00
42141;DHT22;27809;51.864;5.646;2023-05-16T07:31:09;13.50;2.70
42141;DHT22;27809;51.864;5.646;2023-05-16T07:33:34;13.60;3.00
42141;DHT22;27809;51.864;5.646;2023-05-16T07:36:00;16.40;8.60
42141;DHT22;27809;51.864;5.646;2023-05-16T07:38:25;17.80;1.00
42141;DHT22;27809;51.864;5.646;2023-05-16T07:40:51;16.10;1.00
42141;DHT22;27809;51.864;5.646;2023-05-16T07:43:17;14.80;1.00
42141;DHT22;27809;51.864;5.646;2023-05-16T07:45:42;12.50;1.00
42141;DHT22;27809;51.864;5.646;2023-05-16T07:48:08;11.90;4.20
42141;DHT22;27809;51.864;5.646;2023-05-16T07:50:34;11.80;4.20
42141;DHT22;27809;51.864;5.646;2023-05-16T07:53:00;11.60;5.40
42141;DHT22;27809;51.864;5.646;2023-05-16T07:55:25;12.20;4.60
42141;DHT22;27809;51.864;5.646;2023-05-16T07:57:51;12.90;8.20
42141;DHT22;27809;51.864;5.646;2023-05-16T08:00:17;14.00;2.20
42141;DHT22;27809;51.864;5.646;2023-05-16T08:02:43;13.60;2.40
42141;DHT22;27809;51.864;5.646;2023-05-16T08:05:08;13.60;1.00
42141;DHT22;27809;51.864;5.646;2023-05-16T08:07:34;13.40;1.00
42141;DHT22;27809;51.864;5.646;2023-05-16T08:09:59;13.40;1.00
42141;DHT22;27809;51.864;5.646;2023-05-16T08:12:25;13.70;1.00
42141;DHT22;27809;51.864;5.646;2023-05-16T08:14:51;14.00;1.00
42141;DHT22;27809;51.864;5.646;2023-05-16T08:17:17;13.50;1.00
42141;DHT22;27809;51.864;5.646;2023-05-16T08:19:43;13.00;1.70
42141;DHT22;27809;51.864;5.646;2023-05-16T08:22:09;12.30;1.00
42141;DHT22;27809;51.864;5.646;2023-05-16T08:24:34;12.40;1.00
42141;DHT22;27809;51.864;5.646;2023-05-16T08:27:00;16.00;10.60
42141;DHT22;27809;51.864;5.646;2023-05-16T08:29:26;13.80;1.00
42141;DHT22;27809;51.864;5.646;2023-05-16T08:31:51;13.30;1.00
42141;DHT22;27809;51.864;5.646;2023-05-16T08:34:17;12.90;1.00
42141;DHT22;27809;51.864;5.646;2023-05-16T08:36:42;13.80;1.00
42141;DHT22;27809;51.864;5.646;2023-05-16T08:39:08;13.90;1.00
42141;DHT22;27809;51.864;5.646;2023-05-16T08:41:36;13.30;7.30
42141;DHT22;27809;51.864;5.646;2023-05-16T08:44:01;15.20;1.00
42141;DHT22;27809;51.864;5.646;2023-05-16T08:46:28;17.10;1.00
42141;DHT22;27809;51.864;5.646;2023-05-16T08:48:58;17.40;1.00
42141;DHT22;27809;51.864;5.646;2023-05-16T08:51:24;17.60;1.00
42141;DHT22;27809;51.864;5.646;2023-05-16T08:53:59;16.50;1.00
42141;DHT22;27809;51.864;5.646;2023-05-16T08:56:27;16.10;1.00
42141;DHT22;27809;51.864;5.646;2023-05-16T08:58:54;15.60;1.00
42141;DHT22;27809;51.864;5.646;2023-05-16T09:01:23;13.90;1.00
42141;DHT22;27809;51.864;5.646;2023-05-16T09:03:51;12.40;1.00
42141;DHT22;27809;51.864;5.646;2023-05-16T09:06:17;11.60;7.50
42141;DHT22;27809;51.864;5.646;2023-05-16T09:08:43;11.40;20.60
42141;DHT22;27809;51.864;5.646;2023-05-16T09:11:09;11.30;25.00
42141;DHT22;27809;51.864;5.646;2023-05-16T09:13:36;11.40;21.10
42141;DHT22;27809;51.864;5.646;2023-05-16T09:16:15;11.40;19.90
42141;DHT22;27809;51.864;5.646;2023-05-16T09:18:52;11.80;18.80
42141;DHT22;27809;51.864;5.646;2023-05-16T09:21:18;12.60;16.80
42141;DHT22;27809;51.864;5.646;2023-05-16T09:23:44;14.30;7.90
42141;DHT22;27809;51.864;5.646;2023-05-16T09:26:09;14.80;1.00
42141;DHT22;27809;51.864;5.646;2023-05-16T09:28:39;15.30;1.00
42141;DHT22;27809;51.864;5.646;2023-05-16T09:31:25;15.50;1.00
42141;DHT22;27809;51.864;5.646;2023-05-16T09:34:00;15.70;1.00
42141;DHT22;27809;51.864;5.646;2023-05-16T09:36:25;15.90;1.00
42141;DHT22;27809;51.864;5.646;2023-05-16T09:38:52;16.20;1.00
42141;DHT22;27809;51.864;5.646;2023-05-16T09:41:17;16.20;1.00
42141;DHT22;27809;51.864;5.646;2023-05-16T09:43:43;16.60;1.00
42141;DHT22;27809;51.864;5.646;2023-05-16T09:46:13;15.80;1.00
42141;DHT22;27809;51.864;5.646;2023-05-16T09:48:46;17.10;1.00
42141;DHT22;27809;51.864;5.646;2023-05-16T09:51:12;17.30;1.00
42141;DHT22;27809;51.864;5.646;2023-05-16T09:53:38;15.90;1.00
42141;DHT22;27809;51.864;5.646;2023-05-16T09:56:07;17.70;1.00
42141;DHT22;27809;51.864;5.646;2023-05-16T09:58:36;16.70;1.00
42141;DHT22;27809;51.864;5.646;2023-05-16T10:01:02;17.80;1.00
42141;DHT22;27809;51.864;5.646;2023-05-16T10:03:28;17.70;1.00
42141;DHT22;27809;51.864;5.646;2023-05-16T10:05:54;17.70;1.00
42141;DHT22;27809;51.864;5.646;2023-05-16T10:08:21;19.20;1.00
42141;DHT22;27809;51.864;5.646;2023-05-16T10:10:50;20.40;1.00
42141;DHT22;27809;51.864;5.646;2023-05-16T10:13:21;19.80;1.00
42141;DHT22;27809;51.864;5.646;2023-05-16T10:15:48;20.50;1.00
42141;DHT22;27809;51.864;5.646;2023-05-16T10:18:15;18.80;1.00
42141;DHT22;27809;51.864;5.646;2023-05-16T10:20:44;18.40;1.00
42141;DHT22;27809;51.864;5.646;2023-05-16T10:23:17;19.00;1.00
42141;DHT22;27809;51.864;5.646;2023-05-16T10:25:45;18.70;1.00
42141;DHT22;27809;51.864;5.646;2023-05-16T10:28:12;18.70;1.00
42141;DHT22;27809;51.864;5.646;2023-05-16T10:30:43;19.10;1.00
42141;DHT22;27809;51.864;5.646;2023-05-16T10:33:13;19.20;1.00
42141;DHT22;27809;51.864;5.646;2023-05-16T10:35:40;20.50;1.00
42141;DHT22;27809;51.864;5.646;2023-05-16T10:38:07;19.50;1.00
42141;DHT22;27809;51.864;5.646;2023-05-16T10:40:34;20.10;1.00
42141;DHT22;27809;51.864;5.646;2023-05-16T10:43:02;19.20;1.00
42141;DHT22;27809;51.864;5.646;2023-05-16T10:45:28;19.20;1.00
42141;DHT22;27809;51.864;5.646;2023-05-16T10:48:04;18.40;1.00
42141;DHT22;27809;51.864;5.646;2023-05-16T10:50:43;17.40;1.00
42141;DHT22;27809;51.864;5.646;2023-05-16T10:53:19;16.00;1.00
42141;DHT22;27809;51.864;5.646;2023-05-16T10:55:49;15.00;1.00
42141;DHT22;27809;51.864;5.646;2023-05-16T11:01:25;16.80;1.00
42141;DHT22;27809;51.864;5.646;2023-05-16T11:11:57;15.50;1.00
42141;DHT22;27809;51.864;5.646;2023-05-16T11:14:50;15.00;1.00
42141;DHT22;27809;51.864;5.646;2023-05-16T11:17:19;14.50;1.00
42141;DHT22;27809;51.864;5.646;2023-05-16T11:19:49;14.80;1.00
42141;DHT22;27809;51.864;5.646;2023-05-16T11:27:34;15.00;1.00
42141;DHT22;27809;51.864;5.646;2023-05-16T11:32:36;15.10;1.00
42141;DHT22;27809;51.864;5.646;2023-05-16T11:35:03;14.90;1.00
42141;DHT22;27809;51.864;5.646;2023-05-16T11:37:28;14.80;1.00
42141;DHT22;27809;51.864;5.646;2023-05-16T11:40:01;14.30;1.00
42141;DHT22;27809;51.864;5.646;2023-05-16T11:42:34;14.30;1.00
42141;DHT22;27809;51.864;5.646;2023-05-16T11:45:20;17.10;1.00
42141;DHT22;27809;51.864;5.646;2023-05-16T11:47:47;19.60;1.00
42141;DHT22;27809;51.864;5.646;2023-05-16T11:50:15;18.00;1.00
42141;DHT22;27809;51.864;5.646;2023-05-16T11:52:46;18.40;1.00
42141;DHT22;27809;51.864;5.646;2023-05-16T11:55:11;18.10;1.00
42141;DHT22;27809;51.864;5.646;2023-05-16T11:57:39;19.20;1.00
42141;DHT22;27809;51.864;5.646;2023-05-16T12:00:20;17.40;1.00
42141;DHT22;27809;51.864;5.646;2023-05-16T12:02:47;14.80;1.00
42141;DHT22;27809;51.864;5.646;2023-05-16T12:05:14;14.60;1.00
42141;DHT22;27809;51.864;5.646;2023-05-16T12:07:42;14.60;1.00
42141;DHT22;27809;51.864;5.646;2023-05-16T12:10:11;14.30;1.00
42141;DHT22;27809;51.864;5.646;2023-05-16T12:12:39;14.50;1.00
42141;DHT22;27809;51.864;5.646;2023-05-16T12:15:07;14.80;1.00
42141;DHT22;27809;51.864;5.646;2023-05-16T12:17:34;14.90;1.00
42141;DHT22;27809;51.864;5.646;2023-05-16T12:20:00;14.40;1.00
42141;DHT22;27809;51.864;5.646;2023-05-16T12:22:25;14.60;1.00
42141;DHT22;27809;51.864;5.646;2023-05-16T12:24:51;14.70;1.00
42141;DHT22;27809;51.864;5.646;2023-05-16T12:27:26;14.80;1.00
42141;DHT22;27809;51.864;5.646;2023-05-16T12:29:52;14.40;1.00
42141;DHT22;27809;51.864;5.646;2023-05-16T12:32:20;14.20;1.00
42141;DHT22;27809;51.864;5.646;2023-05-16T12:34:50;15.00;1.00
42141;DHT22;27809;51.864;5.646;2023-05-16T12:37:20;14.80;1.00
42141;DHT22;27809;51.864;5.646;2023-05-16T12:39:46;14.10;1.00
42141;DHT22;27809;51.864;5.646;2023-05-16T12:42:13;13.80;1.00
42141;DHT22;27809;51.864;5.646;2023-05-16T12:44:39;13.90;1.00
42141;DHT22;27809;51.864;5.646;2023-05-16T12:47:12;13.80;1.00
42141;DHT22;27809;51.864;5.646;2023-05-16T12:49:47;13.60;1.00
42141;DHT22;27809;51.864;5.646;2023-05-16T12:52:19;13.50;1.00
42141;DHT22;27809;51.864;5.646;2023-05-16T12:54:48;13.60;1.00
42141;DHT22;27809;51.864;5.646;2023-05-16T12:57:14;13.60;1.00
42141;DHT22;27809;51.864;5.646;2023-05-16T12:59:40;13.60;1.00
42141;DHT22;27809;51.864;5.646;2023-05-16T13:02:06;13.70;1.00
42141;DHT22;27809;51.864;5.646;2023-05-16T13:04:32;13.90;1.00
42141;DHT22;27809;51.864;5.646;2023-05-16T13:06:57;13.90;1.00
42141;DHT22;27809;51.864;5.646;2023-05-16T13:09:23;16.20;1.00
42141;DHT22;27809;51.864;5.646;2023-05-16T13:11:49;18.10;1.00
42141;DHT22;27809;51.864;5.646;2023-05-16T13:14:15;14.60;1.00
42141;DHT22;27809;51.864;5.646;2023-05-16T13:16:42;13.50;1.00
42141;DHT22;27809;51.864;5.646;2023-05-16T13:19:08;13.30;1.00
42141;DHT22;27809;51.864;5.646;2023-05-16T13:21:33;13.20;1.00
42141;DHT22;27809;51.864;5.646;2023-05-16T13:23:59;13.10;1.00
42141;DHT22;27809;51.864;5.646;2023-05-16T13:26:25;13.20;1.00
42141;DHT22;27809;51.864;5.646;2023-05-16T13:28:51;13.20;1.00
42141;DHT22;27809;51.864;5.646;2023-05-16T13:31:19;13.20;1.00
42141;DHT22;27809;51.864;5.646;2023-05-16T13:33:44;13.20;1.00
42141;DHT22;27809;51.864;5.646;2023-05-16T13:36:10;13.20;1.00
42141;DHT22;27809;51.864;5.646;2023-05-16T13:38:35;13.30;1.00
42141;DHT22;27809;51.864;5.646;2023-05-16T13:41:01;13.30;1.00
42141;DHT22;27809;51.864;5.646;2023-05-16T13:43:27;13.20;1.00
42141;DHT22;27809;51.864;5.646;2023-05-16T13:45:52;13.10;1.00
42141;DHT22;27809;51.864;5.646;2023-05-16T13:48:18;13.00;1.00
42141;DHT22;27809;51.864;5.646;2023-05-16T13:50:43;12.90;1.00
42141;DHT22;27809;51.864;5.646;2023-05-16T13:53:09;12.90;2.90
42141;DHT22;27809;51.864;5.646;2023-05-16T13:55:35;12.90;6.80
42141;DHT22;27809;51.864;5.646;2023-05-16T13:58:01;12.90;1.00
42141;DHT22;27809;51.864;5.646;2023-05-16T14:00:27;12.90;3.10
42141;DHT22;27809;51.864;5.646;2023-05-16T14:02:53;12.80;1.00
42141;DHT22;27809;51.864;5.646;2023-05-16T14:05:19;13.00;1.00
42141;DHT22;27809;51.864;5.646;2023-05-16T14:07:44;13.30;1.00
42141;DHT22;27809;51.864;5.646;2023-05-16T14:10:10;13.30;1.00
42141;DHT22;27809;51.864;5.646;2023-05-16T14:12:36;13.50;1.00
42141;DHT22;27809;51.864;5.646;2023-05-16T14:15:03;13.60;1.00
42141;DHT22;27809;51.864;5.646;2023-05-16T14:17:28;13.50;1.00
42141;DHT22;27809;51.864;5.646;2023-05-16T14:19:54;13.20;1.00
42141;DHT22;27809;51.864;5.646;2023-05-16T14:22:19;13.30;1.00
42141;DHT22;27809;51.864;5.646;2023-05-16T14:24:45;13.00;1.00
42141;DHT22;27809;51.864;5.646;2023-05-16T14:27:11;12.90;1.00
42141;DHT22;27809;51.864;5.646;2023-05-16T14:29:36;13.10;1.00
42141;DHT22;27809;51.864;5.646;2023-05-16T14:32:02;13.10;1.00
42141;DHT22;27809;51.864;5.646;2023-05-16T14:34:27;12.90;1.00
42141;DHT22;27809;51.864;5.646;2023-05-16T14:36:53;12.70;1.00
42141;DHT22;27809;51.864;5.646;2023-05-16T14:39:18;12.90;1.00
42141;DHT22;27809;51.864;5.646;2023-05-16T14:41:44;13.10;1.00
42141;DHT22;27809;51.864;5.646;2023-05-16T14:44:09;13.30;1.00
42141;DHT22;27809;51.864;5.646;2023-05-16T14:46:35;13.60;1.00
42141;DHT22;27809;51.864;5.646;2023-05-16T14:49:01;13.60;1.00
42141;DHT22;27809;51.864;5.646;2023-05-16T14:51:26;13.50;1.00
42141;DHT22;27809;51.864;5.646;2023-05-16T14:53:52;13.60;1.00
42141;DHT22;27809;51.864;5.646;2023-05-16T14:56:17;13.70;1.00
42141;DHT22;27809;51.864;5.646;2023-05-16T14:58:43;14.40;6.10
42141;DHT22;27809;51.864;5.646;2023-05-16T15:01:08;14.00;1.00
42141;DHT22;27809;51.864;5.646;2023-05-16T15:03:35;13.00;1.00
42141;DHT22;27809;51.864;5.646;2023-05-16T15:06:00;12.80;1.00
42141;DHT22;27809;51.864;5.646;2023-05-16T15:08:26;12.90;1.00
42141;DHT22;27809;51.864;5.646;2023-05-16T15:10:51;12.80;1.00
42141;DHT22;27809;51.864;5.646;2023-05-16T15:13:17;13.00;1.00
42141;DHT22;27809;51.864;5.646;2023-05-16T15:15:43;13.10;1.00
42141;DHT22;27809;51.864;5.646;2023-05-16T15:18:09;13.00;1.00
42141;DHT22;27809;51.864;5.646;2023-05-16T15:20:35;13.10;1.00
42141;DHT22;27809;51.864;5.646;2023-05-16T15:23:01;13.20;1.00
42141;DHT22;27809;51.864;5.646;2023-05-16T15:25:26;13.00;1.00
42141;DHT22;27809;51.864;5.646;2023-05-16T15:27:52;12.90;1.00
42141;DHT22;27809;51.864;5.646;2023-05-16T15:30:17;12.60;1.00
42141;DHT22;27809;51.864;5.646;2023-05-16T15:32:43;12.70;1.00
42141;DHT22;27809;51.864;5.646;2023-05-16T15:35:09;12.70;1.00
42141;DHT22;27809;51.864;5.646;2023-05-16T15:37:34;12.70;1.00
42141;DHT22;27809;51.864;5.646;2023-05-16T15:40:00;12.80;1.00
42141;DHT22;27809;51.864;5.646;2023-05-16T15:42:25;12.80;1.00
42141;DHT22;27809;51.864;5.646;2023-05-16T15:44:51;12.90;1.00
42141;DHT22;27809;51.864;5.646;2023-05-16T15:47:16;12.90;1.00
42141;DHT22;27809;51.864;5.646;2023-05-16T15:49:42;13.40;1.00
42141;DHT22;27809;51.864;5.646;2023-05-16T15:52:08;13.30;1.00
42141;DHT22;27809;51.864;5.646;2023-05-16T15:54:34;13.10;1.00
42141;DHT22;27809;51.864;5.646;2023-05-16T15:57:00;12.90;1.00
42141;DHT22;27809;51.864;5.646;2023-05-16T15:59:26;12.90;1.00
42141;DHT22;27809;51.864;5.646;2023-05-16T16:01:51;12.90;1.00
42141;DHT22;27809;51.864;5.646;2023-05-16T16:04:17;12.70;1.00
42141;DHT22;27809;51.864;5.646;2023-05-16T16:06:42;12.70;1.00
42141;DHT22;27809;51.864;5.646;2023-05-16T16:09:08;12.70;1.00